PTD16 EGHR-EGKC
Flight info
| Callsign | PTD16 |
|---|---|
| Flight time | N/A |
| Altitude | 3000 |
| Route | VFR |
| Aircraft | C172/L-VGDW/C |
Departure
| Time | 2026-04-27 18:18 |
|---|---|
| Airport | Goodwood Aerodrome (EGHR) |
Arrival
| Time | N/A |
|---|---|
| Airport | EGKC |
| Time | Latitude | Longitude | Altitude | Speed | Heading |
|---|---|---|---|---|---|
| 2026-04-27 17:48 | 50.85905 | -0.75643 | 106 ft | 0 kts | 17° |
| 2026-04-27 18:02 | 50.85920 | -0.75636 | 106 ft | 7 kts | 8° |
| 2026-04-27 18:03 | 50.85953 | -0.75700 | 108 ft | 9 kts | 337° |
| 2026-04-27 18:03 | 50.85988 | -0.75778 | 109 ft | 9 kts | 289° |
| 2026-04-27 18:03 | 50.85993 | -0.75808 | 109 ft | 4 kts | 276° |
| 2026-04-27 18:03 | 50.85998 | -0.75873 | 109 ft | 9 kts | 268° |
| 2026-04-27 18:04 | 50.86029 | -0.76001 | 109 ft | 16 kts | 298° |
| 2026-04-27 18:04 | 50.86111 | -0.76124 | 112 ft | 17 kts | 322° |
| 2026-04-27 18:04 | 50.86203 | -0.76229 | 114 ft | 14 kts | 326° |
| 2026-04-27 18:04 | 50.86245 | -0.76256 | 115 ft | 4 kts | 339° |
| 2026-04-27 18:05 | 50.86240 | -0.76279 | 115 ft | 3 kts | 159° |
| 2026-04-27 18:05 | 50.86234 | -0.76267 | 114 ft | 0 kts | 115° |
| 2026-04-27 18:06 | 50.86234 | -0.76268 | 114 ft | 0 kts | 115° |
| 2026-04-27 18:15 | 50.86232 | -0.76256 | 115 ft | 4 kts | 81° |
| 2026-04-27 18:15 | 50.86251 | -0.76264 | 117 ft | 1 kts | 261° |
| 2026-04-27 18:16 | 50.86249 | -0.76276 | 114 ft | 3 kts | 262° |
| 2026-04-27 18:16 | 50.86251 | -0.76316 | 116 ft | 6 kts | 271° |
| 2026-04-27 18:16 | 50.86219 | -0.76336 | 114 ft | 8 kts | 144° |
| 2026-04-27 18:16 | 50.86210 | -0.76321 | 113 ft | 0 kts | 145° |
| 2026-04-27 18:17 | 50.86200 | -0.76308 | 115 ft | 14 kts | 139° |
| 2026-04-27 18:17 | 50.86004 | -0.76037 | 108 ft | 60 kts | 137° |
| 2026-04-27 18:18 | 50.85713 | -0.75517 | 278 ft | 62 kts | 128° |
| 2026-04-27 18:18 | 50.85484 | -0.74951 | 480 ft | 58 kts | 118° |
| 2026-04-27 18:18 | 50.85324 | -0.74356 | 621 ft | 62 kts | 113° |
| 2026-04-27 18:18 | 50.85130 | -0.73735 | 771 ft | 66 kts | 119° |
| 2026-04-27 18:19 | 50.84914 | -0.73099 | 959 ft | 66 kts | 119° |
| 2026-04-27 18:19 | 50.84650 | -0.72458 | 1113 ft | 71 kts | 123° |
| 2026-04-27 18:19 | 50.84379 | -0.71795 | 1303 ft | 72 kts | 123° |
| 2026-04-27 18:19 | 50.84069 | -0.71145 | 1468 ft | 76 kts | 125° |
| 2026-04-27 18:20 | 50.83725 | -0.70452 | 1649 ft | 81 kts | 126° |
| 2026-04-27 18:20 | 50.83377 | -0.69769 | 1848 ft | 79 kts | 125° |
| 2026-04-27 18:20 | 50.83087 | -0.69073 | 2050 ft | 75 kts | 116° |
| 2026-04-27 18:20 | 50.82761 | -0.68385 | 2212 ft | 80 kts | 126° |
| 2026-04-27 18:21 | 50.82403 | -0.67722 | 2419 ft | 80 kts | 123° |
| 2026-04-27 18:21 | 50.82039 | -0.66989 | 2511 ft | 96 kts | 123° |
| 2026-04-27 18:21 | 50.81643 | -0.66092 | 2641 ft | 102 kts | 118° |
| 2026-04-27 18:21 | 50.81278 | -0.65129 | 2829 ft | 101 kts | 114° |
| 2026-04-27 18:22 | 50.81091 | -0.64113 | 3007 ft | 98 kts | 77° |
| 2026-04-27 18:22 | 50.81387 | -0.63160 | 3080 ft | 101 kts | 55° |
| 2026-04-27 18:22 | 50.81700 | -0.62122 | 2999 ft | 106 kts | 69° |
| 2026-04-27 18:22 | 50.81902 | -0.61026 | 3009 ft | 103 kts | 69° |
| 2026-04-27 18:23 | 50.82119 | -0.59975 | 3052 ft | 100 kts | 66° |
| 2026-04-27 18:23 | 50.82350 | -0.58938 | 3047 ft | 100 kts | 66° |
| 2026-04-27 18:23 | 50.82564 | -0.57890 | 3055 ft | 100 kts | 68° |
| 2026-04-27 18:23 | 50.82783 | -0.56835 | 3052 ft | 100 kts | 67° |
| 2026-04-27 18:24 | 50.83000 | -0.55791 | 3043 ft | 101 kts | 66° |
| 2026-04-27 18:24 | 50.83234 | -0.54756 | 3040 ft | 100 kts | 67° |
| 2026-04-27 18:24 | 50.83454 | -0.53693 | 2998 ft | 102 kts | 68° |
| 2026-04-27 18:24 | 50.83653 | -0.52616 | 2976 ft | 102 kts | 71° |
| 2026-04-27 18:25 | 50.83809 | -0.51525 | 2963 ft | 103 kts | 76° |
| 2026-04-27 18:25 | 50.83952 | -0.50415 | 2950 ft | 103 kts | 72° |
| 2026-04-27 18:25 | 50.84115 | -0.49338 | 2981 ft | 99 kts | 73° |
| 2026-04-27 18:25 | 50.84267 | -0.48270 | 2973 ft | 102 kts | 73° |
| 2026-04-27 18:26 | 50.84397 | -0.47166 | 2966 ft | 101 kts | 75° |
| 2026-04-27 18:26 | 50.84536 | -0.46086 | 2978 ft | 100 kts | 72° |
| 2026-04-27 18:26 | 50.84717 | -0.45021 | 2987 ft | 99 kts | 71° |
| 2026-04-27 18:26 | 50.84896 | -0.43971 | 2994 ft | 98 kts | 70° |
| 2026-04-27 18:27 | 50.85105 | -0.42935 | 2975 ft | 99 kts | 66° |
| 2026-04-27 18:27 | 50.85366 | -0.41927 | 2941 ft | 99 kts | 62° |
| 2026-04-27 18:27 | 50.85675 | -0.40957 | 2940 ft | 98 kts | 58° |
| 2026-04-27 18:27 | 50.85957 | -0.39976 | 2927 ft | 100 kts | 65° |
| 2026-04-27 18:28 | 50.86202 | -0.38938 | 2906 ft | 100 kts | 65° |
| 2026-04-27 18:28 | 50.86469 | -0.37933 | 2947 ft | 99 kts | 61° |
| 2026-04-27 18:28 | 50.86769 | -0.36946 | 2949 ft | 100 kts | 65° |
| 2026-04-27 18:28 | 50.86935 | -0.35888 | 2989 ft | 99 kts | 77° |
| 2026-04-27 18:29 | 50.87032 | -0.34791 | 2956 ft | 102 kts | 79° |
| 2026-04-27 18:29 | 50.87091 | -0.33678 | 2978 ft | 100 kts | 82° |
| 2026-04-27 18:29 | 50.87142 | -0.32570 | 2994 ft | 101 kts | 77° |
| 2026-04-27 18:29 | 50.87309 | -0.31501 | 2999 ft | 100 kts | 70° |
| 2026-04-27 18:30 | 50.87498 | -0.30436 | 3005 ft | 101 kts | 70° |
| 2026-04-27 18:30 | 50.87711 | -0.29396 | 3037 ft | 98 kts | 66° |
| 2026-04-27 18:30 | 50.87938 | -0.28373 | 3026 ft | 99 kts | 67° |
| 2026-04-27 18:30 | 50.88182 | -0.27350 | 3011 ft | 99 kts | 65° |
| 2026-04-27 18:31 | 50.88426 | -0.26355 | 3035 ft | 98 kts | 65° |
| 2026-04-27 18:31 | 50.88682 | -0.25342 | 3045 ft | 99 kts | 63° |
| 2026-04-27 18:31 | 50.88935 | -0.24309 | 3078 ft | 99 kts | 66° |
| 2026-04-27 18:31 | 50.89190 | -0.23288 | 3050 ft | 101 kts | 64° |
| 2026-04-27 18:32 | 50.89455 | -0.22267 | 3051 ft | 101 kts | 65° |
| 2026-04-27 18:32 | 50.89712 | -0.21219 | 3040 ft | 102 kts | 66° |
| 2026-04-27 18:32 | 50.89921 | -0.20176 | 3093 ft | 100 kts | 72° |
| 2026-04-27 18:32 | 50.90061 | -0.19073 | 3074 ft | 103 kts | 76° |
| 2026-04-27 18:33 | 50.90217 | -0.17985 | 3127 ft | 100 kts | 70° |
| 2026-04-27 18:33 | 50.90418 | -0.16906 | 3103 ft | 103 kts | 70° |
| 2026-04-27 18:33 | 50.90642 | -0.15868 | 3161 ft | 98 kts | 64° |
| 2026-04-27 18:33 | 50.90910 | -0.14838 | 3108 ft | 103 kts | 64° |
| 2026-04-27 18:34 | 50.91152 | -0.13802 | 3143 ft | 99 kts | 67° |
| 2026-04-27 18:34 | 50.91371 | -0.12749 | 3093 ft | 101 kts | 71° |
| 2026-04-27 18:34 | 50.91536 | -0.11654 | 3062 ft | 103 kts | 75° |
| 2026-04-27 18:34 | 50.91655 | -0.10538 | 3049 ft | 103 kts | 79° |
| 2026-04-27 18:35 | 50.91726 | -0.09408 | 3031 ft | 103 kts | 78° |
| 2026-04-27 18:35 | 50.91882 | -0.08319 | 3014 ft | 101 kts | 71° |
| 2026-04-27 18:35 | 50.92069 | -0.07236 | 2981 ft | 102 kts | 71° |
| 2026-04-27 18:35 | 50.92247 | -0.06157 | 2978 ft | 101 kts | 73° |
| 2026-04-27 18:36 | 50.92393 | -0.05058 | 2952 ft | 102 kts | 75° |
| 2026-04-27 18:36 | 50.92552 | -0.03972 | 2943 ft | 101 kts | 70° |
| 2026-04-27 18:36 | 50.92777 | -0.02915 | 2933 ft | 101 kts | 66° |
| 2026-04-27 18:36 | 50.93011 | -0.01892 | 2967 ft | 97 kts | 68° |
| 2026-04-27 18:37 | 50.93214 | -0.00868 | 2954 ft | 99 kts | 68° |
| 2026-04-27 18:37 | 50.93450 | 0.00139 | 2979 ft | 96 kts | 65° |
| 2026-04-27 18:37 | 50.93694 | 0.01114 | 3007 ft | 94 kts | 63° |
| 2026-04-27 18:37 | 50.93951 | 0.02069 | 3007 ft | 96 kts | 65° |
| 2026-04-27 18:38 | 50.94116 | 0.02729 | 2997 ft | 98 kts | 66° |
| 2026-04-27 18:38 | 50.94359 | 0.03713 | 3055 ft | 94 kts | 63° |
| 2026-04-27 18:38 | 50.94640 | 0.04671 | 3064 ft | 96 kts | 63° |
| 2026-04-27 18:38 | 50.94899 | 0.05610 | 3128 ft | 90 kts | 61° |
| 2026-04-27 18:39 | 50.95152 | 0.06551 | 3097 ft | 98 kts | 65° |
| 2026-04-27 18:39 | 50.95451 | 0.07890 | 3136 ft | 94 kts | 65° |
| 2026-04-27 18:39 | 50.95733 | 0.08845 | 3120 ft | 96 kts | 58° |
| 2026-04-27 18:39 | 50.95996 | 0.09815 | 3137 ft | 98 kts | 65° |
| 2026-04-27 18:40 | 50.96173 | 0.10488 | 3160 ft | 97 kts | 62° |
| 2026-04-27 18:40 | 50.96424 | 0.11466 | 3152 ft | 100 kts | 67° |
| 2026-04-27 18:40 | 50.96651 | 0.12492 | 3178 ft | 96 kts | 68° |
| 2026-04-27 18:40 | 50.96848 | 0.13533 | 3108 ft | 103 kts | 70° |
| 2026-04-27 18:41 | 50.97037 | 0.14615 | 3177 ft | 102 kts | 71° |
| 2026-04-27 18:41 | 50.97228 | 0.15723 | 3119 ft | 107 kts | 71° |
| 2026-04-27 18:41 | 50.97401 | 0.16884 | 3054 ft | 107 kts | 73° |
| 2026-04-27 18:41 | 50.97585 | 0.18005 | 3052 ft | 104 kts | 69° |
| 2026-04-27 18:42 | 50.97826 | 0.19074 | 3038 ft | 102 kts | 65° |
| 2026-04-27 18:42 | 50.98024 | 0.19765 | 3028 ft | 102 kts | 61° |
| 2026-04-27 18:42 | 50.98355 | 0.21168 | 3019 ft | 101 kts | 73° |
| 2026-04-27 18:42 | 50.98410 | 0.22304 | 3008 ft | 107 kts | 90° |
| 2026-04-27 18:43 | 50.98303 | 0.23467 | 3029 ft | 105 kts | 100° |
| 2026-04-27 18:43 | 50.98058 | 0.24568 | 3020 ft | 108 kts | 111° |
| 2026-04-27 18:43 | 50.97731 | 0.25632 | 3023 ft | 103 kts | 99° |
| 2026-04-27 18:43 | 50.97975 | 0.26579 | 3021 ft | 95 kts | 40° |
| 2026-04-27 18:44 | 50.98462 | 0.27272 | 3040 ft | 95 kts | 43° |
| 2026-04-27 18:44 | 50.98941 | 0.28014 | 3047 ft | 95 kts | 41° |
| 2026-04-27 18:44 | 50.99422 | 0.28700 | 3089 ft | 92 kts | 38° |
| 2026-04-27 18:44 | 50.99944 | 0.29324 | 3088 ft | 94 kts | 33° |
| 2026-04-27 18:45 | 51.00494 | 0.29875 | 3121 ft | 94 kts | 28° |
| 2026-04-27 18:45 | 51.01004 | 0.30503 | 3151 ft | 93 kts | 45° |
| 2026-04-27 18:45 | 51.01435 | 0.31289 | 3149 ft | 95 kts | 47° |
| 2026-04-27 18:45 | 51.01847 | 0.32099 | 3166 ft | 93 kts | 46° |
| 2026-04-27 18:46 | 51.02287 | 0.32820 | 3178 ft | 91 kts | 41° |
| 2026-04-27 18:46 | 51.02783 | 0.33505 | 3156 ft | 94 kts | 37° |
| 2026-04-27 18:46 | 51.03295 | 0.34123 | 3164 ft | 94 kts | 36° |
| 2026-04-27 18:46 | 51.03807 | 0.34757 | 3194 ft | 92 kts | 36° |
| 2026-04-27 18:47 | 51.04300 | 0.35398 | 3200 ft | 94 kts | 39° |
| 2026-04-27 18:47 | 51.04784 | 0.36109 | 3214 ft | 93 kts | 41° |
| 2026-04-27 18:47 | 51.05238 | 0.36821 | 3217 ft | 93 kts | 43° |
| 2026-04-27 18:47 | 51.05693 | 0.37570 | 3228 ft | 93 kts | 43° |
| 2026-04-27 18:48 | 51.06145 | 0.38286 | 3244 ft | 92 kts | 41° |
| 2026-04-27 18:48 | 51.06629 | 0.38997 | 3224 ft | 95 kts | 40° |
| 2026-04-27 18:48 | 51.07110 | 0.39716 | 3240 ft | 94 kts | 41° |
| 2026-04-27 18:48 | 51.07593 | 0.40405 | 3250 ft | 93 kts | 38° |
| 2026-04-27 18:49 | 51.08105 | 0.41044 | 3269 ft | 93 kts | 35° |
| 2026-04-27 18:49 | 51.08571 | 0.41737 | 3284 ft | 94 kts | 47° |
| 2026-04-27 18:49 | 51.08995 | 0.42580 | 3225 ft | 99 kts | 48° |
| 2026-04-27 18:49 | 51.09430 | 0.43428 | 3220 ft | 99 kts | 49° |
| 2026-04-27 18:50 | 51.09856 | 0.44299 | 3155 ft | 100 kts | 50° |
| 2026-04-27 18:50 | 51.10302 | 0.45176 | 2947 ft | 103 kts | 48° |
| 2026-04-27 18:50 | 51.10752 | 0.46048 | 2765 ft | 101 kts | 50° |
| 2026-04-27 18:50 | 51.11208 | 0.46896 | 2597 ft | 100 kts | 47° |
| 2026-04-27 18:51 | 51.11668 | 0.47710 | 2438 ft | 100 kts | 49° |
| 2026-04-27 18:51 | 51.12118 | 0.48555 | 2275 ft | 99 kts | 50° |
| 2026-04-27 18:51 | 51.12551 | 0.49402 | 2164 ft | 97 kts | 49° |
| 2026-04-27 18:51 | 51.13003 | 0.50212 | 2074 ft | 99 kts | 50° |
| 2026-04-27 18:52 | 51.13413 | 0.51060 | 2008 ft | 96 kts | 55° |
| 2026-04-27 18:52 | 51.13787 | 0.51952 | 1918 ft | 96 kts | 57° |
| 2026-04-27 18:52 | 51.14153 | 0.52820 | 1858 ft | 94 kts | 56° |
| 2026-04-27 18:53 | 51.14942 | 0.54522 | 1714 ft | 94 kts | 53° |
| 2026-04-27 18:53 | 51.15343 | 0.55354 | 1658 ft | 95 kts | 51° |
| 2026-04-27 18:53 | 51.15764 | 0.56155 | 1622 ft | 93 kts | 50° |
| 2026-04-27 18:53 | 51.16167 | 0.56928 | 1659 ft | 86 kts | 50° |
| 2026-04-27 18:54 | 51.16546 | 0.57571 | 1763 ft | 78 kts | 45° |
| 2026-04-27 18:54 | 51.16939 | 0.58168 | 1788 ft | 78 kts | 44° |
| 2026-04-27 18:54 | 51.17342 | 0.58778 | 1809 ft | 77 kts | 45° |
| 2026-04-27 18:54 | 51.17699 | 0.59379 | 1858 ft | 72 kts | 57° |
| 2026-04-27 18:55 | 51.17838 | 0.60153 | 1857 ft | 74 kts | 85° |
| 2026-04-27 18:55 | 51.17789 | 0.61011 | 1860 ft | 78 kts | 92° |
| 2026-04-27 18:55 | 51.17768 | 0.61863 | 1993 ft | 78 kts | 90° |
| 2026-04-27 18:55 | 51.17713 | 0.62691 | 1984 ft | 79 kts | 92° |
| 2026-04-27 18:56 | 51.17662 | 0.63570 | 1978 ft | 78 kts | 97° |
| 2026-04-27 18:56 | 51.17265 | 0.64162 | 1886 ft | 93 kts | 167° |
| 2026-04-27 18:56 | 51.16606 | 0.64066 | 1852 ft | 93 kts | 187° |
| 2026-04-27 18:56 | 51.15990 | 0.63897 | 1850 ft | 91 kts | 186° |
| 2026-04-27 18:57 | 51.15363 | 0.63730 | 1791 ft | 91 kts | 187° |
| 2026-04-27 18:57 | 51.14730 | 0.63523 | 1690 ft | 90 kts | 191° |
| 2026-04-27 18:57 | 51.14114 | 0.63313 | 1568 ft | 91 kts | 175° |
| 2026-04-27 18:57 | 51.13595 | 0.63774 | 1454 ft | 87 kts | 119° |
| 2026-04-27 18:58 | 51.13572 | 0.64689 | 1330 ft | 86 kts | 65° |
| 2026-04-27 18:58 | 51.13818 | 0.65153 | 1291 ft | 82 kts | 37° |
| 2026-04-27 18:58 | 51.14538 | 0.65553 | 1138 ft | 84 kts | 14° |
| 2026-04-27 18:58 | 51.15116 | 0.65680 | 1032 ft | 85 kts | 8° |
| 2026-04-27 18:59 | 51.15701 | 0.65701 | 987 ft | 83 kts | 1° |
| 2026-04-27 18:59 | 51.16264 | 0.65554 | 944 ft | 82 kts | 333° |
| 2026-04-27 18:59 | 51.16497 | 0.64755 | 866 ft | 87 kts | 274° |
| 2026-04-27 18:59 | 51.16509 | 0.63758 | 768 ft | 89 kts | 270° |
| 2026-04-27 19:00 | 51.16495 | 0.62790 | 731 ft | 88 kts | 268° |
| 2026-04-27 19:00 | 51.16468 | 0.61828 | 652 ft | 87 kts | 264° |
| 2026-04-27 19:00 | 51.16358 | 0.60881 | 605 ft | 78 kts | 238° |
| 2026-04-27 19:00 | 51.15967 | 0.60838 | 590 ft | 71 kts | 115° |
| 2026-04-27 19:01 | 51.15953 | 0.61673 | 504 ft | 84 kts | 88° |
| 2026-04-27 19:01 | 51.15922 | 0.62625 | 294 ft | 88 kts | 102° |
| 2026-04-27 19:01 | 51.15778 | 0.63581 | 118 ft | 89 kts | 103° |
| 2026-04-27 19:01 | 51.15644 | 0.64392 | 97 ft | 58 kts | 105° |
| 2026-04-27 19:02 | 51.15563 | 0.64670 | 102 ft | 15 kts | 195° |
| 2026-04-27 19:02 | 51.15537 | 0.64576 | 103 ft | 6 kts | 250° |
| 2026-04-27 19:02 | 51.15534 | 0.64564 | 103 ft | 0 kts | 256° |
| 2026-04-27 19:06 | 51.15534 | 0.64565 | 103 ft | 0 kts | 256° |